Time;durP1;ratioP1;P1;durP2;ratioP2;P2;SDS_P1;SDS_P2;PMS_P1;PMS_P2;Temp;Humidity;BMP_temperature;BMP_pressure;BME280_temperature;BME280_humidity;BME280_pressure;Samples;Min_cycle;Max_cycle;Signal;HPM_P1;HPM_P2
2023/02/02 00:00:47;;;;;;;4.37;2.57;;;;;;;;;;5070683;28;20028;-62
2023/02/02 00:03:13;;;;;;;13.57;3.10;;;;;;;;;;5070392;28;20021;-61
2023/02/02 00:05:45;;;;;;;3.63;2.47;;;;;;;;;;5070455;28;20079;-62
2023/02/02 00:08:11;;;;;;;5.03;2.90;;;;;;;;;;5073074;28;20095;-62
2023/02/02 00:10:38;;;;;;;5.43;2.87;;;;;;;;;;5074625;28;20550;-62
2023/02/02 00:13:05;;;;;;;2.57;1.40;;;;;;;;;;5075412;28;20396;-62
2023/02/02 00:15:32;;;;;;;5.80;2.87;;;;;;;;;;5075427;28;20032;-62
2023/02/02 00:17:58;;;;;;;2.77;2.03;;;;;;;;;;5075522;28;20095;-63
2023/02/02 00:20:25;;;;;;;6.33;2.90;;;;;;;;;;5071466;28;20074;-62
2023/02/02 00:22:52;;;;;;;2.70;2.10;;;;;;;;;;5062645;28;20056;-62
2023/02/02 00:25:18;;;;;;;3.50;2.23;;;;;;;;;;5068972;28;20028;-62
2023/02/02 00:27:45;;;;;;;3.27;2.40;;;;;;;;;;5069828;28;20357;-61
2023/02/02 00:30:12;;;;;;;4.30;2.60;;;;;;;;;;5073064;28;20025;-62
2023/02/02 00:32:39;;;;;;;5.60;2.80;;;;;;;;;;5074939;28;20023;-62
2023/02/02 00:35:07;;;;;;;4.43;2.53;;;;;;;;;;5075075;28;20027;-62
2023/02/02 00:37:33;;;;;;;4.23;2.83;;;;;;;;;;5058694;28;20488;-62
2023/02/02 00:40:00;;;;;;;6.13;3.60;;;;;;;;;;5055101;28;20021;-61
2023/02/02 00:42:27;;;;;;;4.60;2.13;;;;;;;;;;5051563;28;20025;-62
2023/02/02 00:47:38;;;;;;;4.18;2.50;;;;;;;;;;5049508;28;20074;-62
2023/02/02 00:50:05;;;;;;;12.57;2.70;;;;;;;;;;5049344;28;20029;-62
2023/02/02 00:52:32;;;;;;;5.63;2.80;;;;;;;;;;5068489;28;20043;-62
2023/02/02 00:54:59;;;;;;;5.17;3.10;;;;;;;;;;5074494;28;20040;-62
2023/02/02 00:57:25;;;;;;;3.07;2.07;;;;;;;;;;5074676;28;20020;-62
2023/02/02 00:59:52;;;;;;;4.77;3.20;;;;;;;;;;5074814;28;20043;-62
2023/02/02 01:02:19;;;;;;;3.47;2.70;;;;;;;;;;5074854;28;20040;-61
2023/02/02 01:04:45;;;;;;;5.40;3.53;;;;;;;;;;5068254;28;20017;-62
2023/02/02 01:07:12;;;;;;;2.70;1.97;;;;;;;;;;5056280;28;20032;-62
2023/02/02 01:09:39;;;;;;;5.67;3.20;;;;;;;;;;5069222;28;20032;-62
2023/02/02 01:12:05;;;;;;;7.90;3.13;;;;;;;;;;5069182;28;20025;-62
2023/02/02 01:14:32;;;;;;;4.63;3.10;;;;;;;;;;5071670;28;20501;-61
2023/02/02 01:16:59;;;;;;;5.20;3.00;;;;;;;;;;5074422;28;20031;-62
2023/02/02 01:19:26;;;;;;;11.13;3.20;;;;;;;;;;5074309;28;20028;-62
2023/02/02 01:21:52;;;;;;;5.93;3.43;;;;;;;;;;5073993;28;20537;-62
2023/02/02 01:24:19;;;;;;;3.60;2.70;;;;;;;;;;5074102;28;20383;-63
2023/02/02 01:26:46;;;;;;;2.47;1.87;;;;;;;;;;5071559;28;20016;-62
2023/02/02 01:29:14;;;;;;;7.80;4.17;;;;;;;;;;5068702;28;20063;-62
2023/02/02 01:31:41;;;;;;;3.13;2.57;;;;;;;;;;5068754;28;20588;-61
2023/02/02 01:34:08;;;;;;;11.03;2.97;;;;;;;;;;5066824;28;20036;-62
2023/02/02 01:36:34;;;;;;;3.13;2.40;;;;;;;;;;5051509;28;20028;-62
2023/02/02 01:39:01;;;;;;;3.10;2.40;;;;;;;;;;5056929;28;20052;-61
2023/02/02 01:41:28;;;;;;;3.47;2.57;;;;;;;;;;5071940;28;20117;-62
2023/02/02 01:43:59;;;;;;;2.90;2.17;;;;;;;;;;5074046;28;20348;-61
2023/02/02 01:46:28;;;;;;;11.30;3.53;;;;;;;;;;5073477;28;20027;-61
2023/02/02 01:48:55;;;;;;;10.87;3.20;;;;;;;;;;5071255;28;20036;-62
2023/02/02 01:51:23;;;;;;;4.63;3.17;;;;;;;;;;5067329;28;20051;-62
2023/02/02 01:53:52;;;;;;;12.47;3.60;;;;;;;;;;5049464;28;20028;-62
2023/02/02 01:56:28;;;;;;;8.30;4.47;;;;;;;;;;5048503;28;20395;-61
2023/02/02 01:58:55;;;;;;;3.73;2.70;;;;;;;;;;5050245;28;20044;-62
2023/02/02 02:01:22;;;;;;;12.23;3.57;;;;;;;;;;5053046;28;20029;-62
2023/02/02 02:03:49;;;;;;;6.20;3.50;;;;;;;;;;5053492;28;20032;-62
2023/02/02 02:06:17;;;;;;;4.87;3.47;;;;;;;;;;5054364;28;20375;-62
2023/02/02 02:08:46;;;;;;;9.07;3.17;;;;;;;;;;5059184;28;20047;-61
2023/02/02 02:11:13;;;;;;;6.23;3.37;;;;;;;;;;5064943;28;20103;-62
2023/02/02 02:16:24;;;;;;;;;;;;;;;;;;5048790;28;20090;-61
2023/02/02 02:18:57;;;;;;;7.70;3.93;;;;;;;;;;5048086;28;20005;-62
2023/02/02 02:27:35;;;;;;;2.83;2.23;;;;;;;;;;5045629;28;20090;-62
2023/02/02 02:30:24;;;;;;;5.77;3.90;;;;;;;;;;5052720;28;20021;-62
2023/02/02 02:32:57;;;;;;;5.57;3.30;;;;;;;;;;5050611;28;20044;-62
2023/02/02 02:35:31;;;;;;;10.87;2.93;;;;;;;;;;5038939;28;20037;-62
2023/02/02 02:38:06;;;;;;;5.70;3.28;;;;;;;;;;5057426;28;20115;-60
2023/02/02 02:40:37;;;;;;;2.90;2.30;;;;;;;;;;5048045;28;20017;-60
2023/02/02 02:43:09;;;;;;;8.60;2.77;;;;;;;;;;5043762;28;20104;-60
2023/02/02 02:45:37;;;;;;;7.83;4.47;;;;;;;;;;5052728;28;20036;-60
2023/02/02 02:48:04;;;;;;;5.37;3.67;;;;;;;;;;5052522;28;20021;-60
2023/02/02 02:50:30;;;;;;;4.10;2.70;;;;;;;;;;5063379;28;20036;-60
2023/02/02 02:53:02;;;;;;;2.70;2.17;;;;;;;;;;5072651;28;20025;-60
2023/02/02 02:55:34;;;;;;;10.67;5.63;;;;;;;;;;5062030;28;20467;-60
2023/02/02 02:58:10;;;;;;;8.23;4.67;;;;;;;;;;5047325;28;20408;-61
2023/02/02 03:00:37;;;;;;;21.90;3.10;;;;;;;;;;5047203;28;20024;-60
2023/02/02 03:03:09;;;;;;;2.17;1.83;;;;;;;;;;5047024;28;20415;-60
2023/02/02 03:06:02;;;;;;;4.53;2.77;;;;;;;;;;5053499;28;20060;-60
2023/02/02 03:08:48;;;;;;;3.40;2.10;;;;;;;;;;5036146;28;20482;-61
2023/02/02 03:11:15;;;;;;;7.13;3.67;;;;;;;;;;5052590;28;20043;-60
2023/02/02 03:13:43;;;;;;;11.07;4.70;;;;;;;;;;5052245;28;20037;-60
2023/02/02 03:16:10;;;;;;;3.67;2.90;;;;;;;;;;5052198;28;20083;-60
2023/02/02 03:18:37;;;;;;;6.87;2.23;;;;;;;;;;5057725;28;20023;-60
2023/02/02 03:21:04;;;;;;;6.03;3.90;;;;;;;;;;5059536;28;20535;-60
2023/02/02 03:23:31;;;;;;;2.27;1.63;;;;;;;;;;5047019;28;20315;-60
2023/02/02 03:25:58;;;;;;;6.37;3.57;;;;;;;;;;5046962;28;20476;-60
2023/02/02 03:28:25;;;;;;;3.70;3.10;;;;;;;;;;5049303;28;20438;-60
2023/02/02 03:30:53;;;;;;;4.87;3.83;;;;;;;;;;5052120;28;20383;-60
2023/02/02 03:33:20;;;;;;;4.67;3.40;;;;;;;;;;5052063;28;20029;-60
2023/02/02 03:35:47;;;;;;;14.23;6.00;;;;;;;;;;5065843;28;20134;-60
2023/02/02 03:38:13;;;;;;;5.70;4.27;;;;;;;;;;5072157;28;20104;-60
2023/02/02 03:40:40;;;;;;;13.60;3.43;;;;;;;;;;5066463;28;20025;-60
2023/02/02 03:43:10;;;;;;;4.40;3.13;;;;;;;;;;5046735;28;20376;-60
2023/02/02 03:45:39;;;;;;;9.40;5.27;;;;;;;;;;5046830;28;20172;-61
2023/02/02 03:48:06;;;;;;;7.70;3.70;;;;;;;;;;5046593;28;20123;-60
2023/02/02 03:50:33;;;;;;;2.80;2.03;;;;;;;;;;5049957;28;20017;-60
2023/02/02 03:53:00;;;;;;;12.00;5.50;;;;;;;;;;5051999;28;20021;-60
2023/02/02 03:55:27;;;;;;;9.93;4.67;;;;;;;;;;5053159;28;20029;-61
2023/02/02 03:57:53;;;;;;;8.07;5.23;;;;;;;;;;5051496;28;20353;-61
2023/02/02 04:00:20;;;;;;;5.37;4.07;;;;;;;;;;5071879;28;20035;-61
2023/02/02 04:02:47;;;;;;;3.57;2.90;;;;;;;;;;5069469;28;20025;-61
2023/02/02 04:05:14;;;;;;;2.87;2.17;;;;;;;;;;5066599;28;20019;-61
2023/02/02 04:07:40;;;;;;;11.27;2.87;;;;;;;;;;5047636;28;20025;-61
2023/02/02 04:10:07;;;;;;;8.77;4.83;;;;;;;;;;5049747;28;20041;-61
2023/02/02 04:12:34;;;;;;;4.33;2.47;;;;;;;;;;5052354;28;20029;-61
2023/02/02 04:15:01;;;;;;;6.33;3.30;;;;;;;;;;5057188;28;20486;-61
2023/02/02 04:17:27;;;;;;;5.93;4.53;;;;;;;;;;5058213;28;20027;-61
2023/02/02 04:19:57;;;;;;;5.37;4.33;;;;;;;;;;5065038;28;20505;-61
2023/02/02 04:22:24;;;;;;;5.53;2.83;;;;;;;;;;5058005;28;20032;-61
2023/02/02 04:24:51;;;;;;;5.10;3.10;;;;;;;;;;5059729;28;20116;-61
2023/02/02 04:27:17;;;;;;;14.50;4.77;;;;;;;;;;5064727;28;20032;-62
2023/02/02 04:29:44;;;;;;;3.30;2.40;;;;;;;;;;5051418;28;20039;-62
2023/02/02 04:32:11;;;;;;;6.93;4.20;;;;;;;;;;5066532;28;20475;-62
2023/02/02 04:34:37;;;;;;;5.37;2.93;;;;;;;;;;5054382;28;20320;-63
2023/02/02 04:37:04;;;;;;;3.80;2.83;;;;;;;;;;5059872;28;20028;-61
2023/02/02 04:39:31;;;;;;;8.27;3.67;;;;;;;;;;5060634;28;20025;-61
2023/02/02 04:41:58;;;;;;;6.23;4.27;;;;;;;;;;5056557;28;20063;-61
2023/02/02 04:44:24;;;;;;;23.60;2.90;;;;;;;;;;5055083;28;20025;-61
2023/02/02 04:46:51;;;;;;;5.60;3.00;;;;;;;;;;5058028;28;20543;-62
2023/02/02 04:49:18;;;;;;;5.03;3.53;;;;;;;;;;5057461;28;20140;-61
2023/02/02 04:51:44;;;;;;;6.00;4.53;;;;;;;;;;5051929;28;20426;-61
2023/02/02 04:54:11;;;;;;;6.93;3.23;;;;;;;;;;5049559;28;20033;-62
2023/02/02 04:56:38;;;;;;;9.57;4.70;;;;;;;;;;5049911;28;20055;-61
2023/02/02 04:59:04;;;;;;;4.87;3.13;;;;;;;;;;5054907;28;20025;-62
2023/02/02 05:01:31;;;;;;;7.07;4.63;;;;;;;;;;5068191;28;20024;-62
2023/02/02 05:03:58;;;;;;;6.47;4.37;;;;;;;;;;5074716;28;20033;-61
2023/02/02 05:06:25;;;;;;;3.70;2.73;;;;;;;;;;5070863;28;20027;-62
2023/02/02 05:08:51;;;;;;;6.10;3.23;;;;;;;;;;5066688;28;20116;-60
2023/02/02 05:11:19;;;;;;;4.27;3.23;;;;;;;;;;5069487;28;20029;-61
2023/02/02 05:13:51;;;;;;;7.27;4.67;;;;;;;;;;5069367;28;20039;-60
2023/02/02 05:16:18;;;;;;;7.40;5.03;;;;;;;;;;5069330;28;20036;-61
2023/02/02 05:18:51;;;;;;;5.23;3.03;;;;;;;;;;5069244;28;20362;-61
2023/02/02 05:21:18;;;;;;;4.93;3.03;;;;;;;;;;5068742;28;20040;-60
2023/02/02 05:23:45;;;;;;;2.87;2.30;;;;;;;;;;5054140;28;20025;-62
2023/02/02 05:26:14;;;;;;;5.27;3.37;;;;;;;;;;5054245;28;20121;-61
2023/02/02 05:28:41;;;;;;;6.60;3.40;;;;;;;;;;5054127;28;20033;-61
2023/02/02 05:31:08;;;;;;;4.80;4.23;;;;;;;;;;5053643;28;20376;-60
2023/02/02 05:33:35;;;;;;;6.37;5.07;;;;;;;;;;5048697;28;20025;-62
2023/02/02 05:36:02;;;;;;;3.70;2.80;;;;;;;;;;5055895;28;20040;-60
2023/02/02 05:38:29;;;;;;;7.53;5.27;;;;;;;;;;5068795;28;20024;-61
2023/02/02 05:40:56;;;;;;;3.00;2.13;;;;;;;;;;5068340;28;20032;-61
2023/02/02 05:43:25;;;;;;;5.30;4.07;;;;;;;;;;5073088;28;20521;-60
2023/02/02 05:45:52;;;;;;;11.87;4.93;;;;;;;;;;5073918;28;20020;-60
2023/02/02 05:48:19;;;;;;;6.57;3.20;;;;;;;;;;5073711;28;20062;-60
2023/02/02 05:50:55;;;;;;;7.87;4.67;;;;;;;;;;5073758;28;20034;-60
2023/02/02 05:53:22;;;;;;;4.40;3.43;;;;;;;;;;5063960;28;20399;-60
2023/02/02 05:55:48;;;;;;;3.07;2.27;;;;;;;;;;5068476;28;20024;-61
2023/02/02 05:58:15;;;;;;;5.77;4.10;;;;;;;;;;5068301;28;20405;-61
2023/02/02 06:00:42;;;;;;;9.10;5.20;;;;;;;;;;5068262;28;20032;-61
2023/02/02 06:03:09;;;;;;;6.23;4.73;;;;;;;;;;5068305;28;20047;-61
2023/02/02 06:05:35;;;;;;;8.10;4.33;;;;;;;;;;5073206;28;20103;-61
2023/02/02 06:08:02;;;;;;;4.40;3.43;;;;;;;;;;5065347;28;20029;-60
2023/02/02 06:10:30;;;;;;;5.03;4.30;;;;;;;;;;5072723;28;20037;-61
2023/02/02 06:12:57;;;;;;;4.13;2.77;;;;;;;;;;5073323;28;20432;-60
2023/02/02 06:15:26;;;;;;;2.40;2.20;;;;;;;;;;5072921;28;20024;-60
2023/02/02 06:17:53;;;;;;;3.77;2.73;;;;;;;;;;5067645;28;20108;-61
2023/02/02 06:20:19;;;;;;;4.67;3.53;;;;;;;;;;5068009;28;20025;-61
2023/02/02 06:22:47;;;;;;;3.73;3.10;;;;;;;;;;5067145;28;20070;-60
2023/02/02 06:25:14;;;;;;;8.17;4.07;;;;;;;;;;5067773;28;20619;-60
2023/02/02 06:27:40;;;;;;;4.23;3.10;;;;;;;;;;5072476;28;20069;-60
2023/02/02 06:30:07;;;;;;;5.53;2.93;;;;;;;;;;5072892;28;20430;-60
2023/02/02 06:32:34;;;;;;;3.37;2.77;;;;;;;;;;5072824;28;20069;-60
2023/02/02 06:35:01;;;;;;;5.43;4.17;;;;;;;;;;5072959;28;20020;-60
2023/02/02 06:37:27;;;;;;;5.70;4.30;;;;;;;;;;5064634;28;20443;-60
2023/02/02 06:39:54;;;;;;;4.33;2.57;;;;;;;;;;5047625;28;20472;-60
2023/02/02 06:42:21;;;;;;;3.50;2.53;;;;;;;;;;5047610;28;20441;-61
2023/02/02 06:44:47;;;;;;;6.13;4.03;;;;;;;;;;5047634;28;20017;-60
2023/02/02 06:47:14;;;;;;;2.93;2.60;;;;;;;;;;5047481;28;20060;-61
2023/02/02 06:49:41;;;;;;;4.13;3.03;;;;;;;;;;5051315;28;20124;-60
2023/02/02 06:52:07;;;;;;;4.13;3.13;;;;;;;;;;5052524;28;20025;-61
2023/02/02 06:54:34;;;;;;;5.07;4.47;;;;;;;;;;5052493;28;20110;-60
2023/02/02 06:57:01;;;;;;;6.03;4.47;;;;;;;;;;5052194;28;20095;-60
2023/02/02 06:59:27;;;;;;;10.20;3.50;;;;;;;;;;5052482;28;20040;-60
2023/02/02 07:01:54;;;;;;;4.10;2.87;;;;;;;;;;5048051;28;20095;-60
2023/02/02 07:04:21;;;;;;;5.50;3.17;;;;;;;;;;5047240;28;20025;-61
2023/02/02 07:06:47;;;;;;;4.17;3.33;;;;;;;;;;5047092;28;20040;-61
2023/02/02 07:09:14;;;;;;;11.63;4.10;;;;;;;;;;5058828;28;20383;-60
2023/02/02 07:11:41;;;;;;;6.13;4.67;;;;;;;;;;5070669;28;20060;-60
2023/02/02 07:14:08;;;;;;;6.57;4.07;;;;;;;;;;5071721;28;20043;-60
2023/02/02 07:16:35;;;;;;;33.90;4.27;;;;;;;;;;5072475;28;20115;-60
2023/02/02 07:19:01;;;;;;;7.17;4.47;;;;;;;;;;5072289;28;20039;-60
2023/02/02 07:21:34;;;;;;;5.17;3.50;;;;;;;;;;5072113;28;20031;-60
2023/02/02 07:24:01;;;;;;;6.33;5.07;;;;;;;;;;5065838;28;20420;-61
2023/02/02 07:26:28;;;;;;;4.10;3.17;;;;;;;;;;5046796;28;20029;-60
2023/02/02 07:28:55;;;;;;;4.27;3.47;;;;;;;;;;5046352;28;20127;-61
2023/02/02 07:31:26;;;;;;;4.43;3.67;;;;;;;;;;5046937;28;20037;-60
2023/02/02 07:33:53;;;;;;;3.40;2.57;;;;;;;;;;5050004;28;20032;-61
2023/02/02 07:36:22;;;;;;;4.57;3.23;;;;;;;;;;5052073;28;20108;-60
2023/02/02 07:38:50;;;;;;;7.37;3.87;;;;;;;;;;5051785;28;20029;-60
2023/02/02 07:41:16;;;;;;;3.10;2.33;;;;;;;;;;5063670;28;20039;-60
2023/02/02 07:43:46;;;;;;;3.07;2.40;;;;;;;;;;5071559;28;20025;-60
2023/02/02 07:46:13;;;;;;;2.90;2.40;;;;;;;;;;5067906;28;20024;-61
2023/02/02 07:48:40;;;;;;;3.70;2.83;;;;;;;;;;5066685;28;20028;-60
2023/02/02 07:51:08;;;;;;;8.83;4.90;;;;;;;;;;5066775;28;20029;-60
2023/02/02 07:53:35;;;;;;;5.97;4.53;;;;;;;;;;5066767;28;20029;-60
2023/02/02 07:56:12;;;;;;;2.83;2.50;;;;;;;;;;5068441;28;20032;-60
2023/02/02 07:58:39;;;;;;;3.30;2.17;;;;;;;;;;5052016;28;20048;-60
2023/02/02 08:01:07;;;;;;;7.07;4.97;;;;;;;;;;5051933;28;20792;-60
2023/02/02 08:03:34;;;;;;;5.20;4.13;;;;;;;;;;5051808;28;20082;-60
2023/02/02 08:06:01;;;;;;;4.33;3.00;;;;;;;;;;5054503;28;20032;-60
2023/02/02 08:08:27;;;;;;;6.50;4.17;;;;;;;;;;5051561;28;20021;-60
2023/02/02 08:10:54;;;;;;;3.43;2.83;;;;;;;;;;5050419;28;20070;-60
2023/02/02 08:13:21;;;;;;;6.63;4.60;;;;;;;;;;5049590;28;20270;-60
2023/02/02 08:15:47;;;;;;;5.97;4.83;;;;;;;;;;5050494;28;20028;-60
2023/02/02 08:18:14;;;;;;;11.77;5.37;;;;;;;;;;5053398;28;20268;-60
2023/02/02 08:20:41;;;;;;;3.50;3.20;;;;;;;;;;5055487;28;20021;-60
2023/02/02 08:23:12;;;;;;;4.10;3.63;;;;;;;;;;5055455;28;20333;-60
2023/02/02 08:25:39;;;;;;;6.10;3.77;;;;;;;;;;5055193;28;20265;-60
2023/02/02 08:28:06;;;;;;;3.40;2.90;;;;;;;;;;5063256;28;20273;-60
2023/02/02 08:30:34;;;;;;;17.33;2.73;;;;;;;;;;5071768;28;20265;-60
2023/02/02 08:33:01;;;;;;;3.47;2.77;;;;;;;;;;5069936;28;20754;-61
2023/02/02 08:35:27;;;;;;;2.77;2.30;;;;;;;;;;5069764;28;20487;-60
2023/02/02 08:37:54;;;;;;;2.73;2.10;;;;;;;;;;5069846;28;20280;-60
2023/02/02 08:40:21;;;;;;;2.47;1.97;;;;;;;;;;5060117;28;20266;-61
2023/02/02 08:42:52;;;;;;;2.97;2.20;;;;;;;;;;5055011;28;20380;-60
2023/02/02 08:45:19;;;;;;;2.93;2.37;;;;;;;;;;5054963;28;20741;-60
2023/02/02 08:47:45;;;;;;;4.10;2.83;;;;;;;;;;5054815;28;20254;-60
2023/02/02 08:50:12;;;;;;;4.40;3.60;;;;;;;;;;5055023;28;20317;-60
2023/02/02 08:52:39;;;;;;;4.40;3.47;;;;;;;;;;5051631;28;20266;-60
2023/02/02 08:55:06;;;;;;;5.83;3.23;;;;;;;;;;5069240;28;20323;-60
2023/02/02 08:57:33;;;;;;;4.37;3.63;;;;;;;;;;5069376;28;20086;-60
2023/02/02 09:00:00;;;;;;;4.20;2.83;;;;;;;;;;5068987;28;20269;-60
2023/02/02 09:02:26;;;;;;;6.17;3.83;;;;;;;;;;5072006;28;20292;-60
2023/02/02 09:04:53;;;;;;;3.20;2.53;;;;;;;;;;5074489;28;20272;-60
2023/02/02 09:07:20;;;;;;;3.13;2.27;;;;;;;;;;5074483;28;20618;-60
2023/02/02 09:09:46;;;;;;;3.87;3.30;;;;;;;;;;5074164;28;20297;-60
2023/02/02 09:12:13;;;;;;;5.10;3.27;;;;;;;;;;5074548;28;20281;-61
2023/02/02 09:14:40;;;;;;;5.57;2.93;;;;;;;;;;5051725;28;20328;-60
2023/02/02 09:17:06;;;;;;;6.47;4.80;;;;;;;;;;5048782;28;20772;-60
2023/02/02 09:19:33;;;;;;;10.53;4.07;;;;;;;;;;5050848;28;20674;-60
2023/02/02 09:22:00;;;;;;;3.70;2.63;;;;;;;;;;5069038;28;20326;-60
2023/02/02 09:24:27;;;;;;;5.63;4.00;;;;;;;;;;5071132;28;20249;-60
2023/02/02 09:26:53;;;;;;;4.57;2.97;;;;;;;;;;5073888;28;20265;-60
2023/02/02 09:29:20;;;;;;;7.37;2.77;;;;;;;;;;5072370;28;20292;-59
2023/02/02 09:31:47;;;;;;;3.03;2.23;;;;;;;;;;5071391;28;20262;-60
2023/02/02 09:34:14;;;;;;;3.43;2.77;;;;;;;;;;5054056;28;20605;-60
2023/02/02 09:36:41;;;;;;;4.43;3.37;;;;;;;;;;5065388;28;20395;-60
2023/02/02 09:39:08;;;;;;;7.23;3.83;;;;;;;;;;5068360;28;20480;-60
2023/02/02 09:41:38;;;;;;;4.23;3.27;;;;;;;;;;5068590;28;20261;-60
2023/02/02 09:44:05;;;;;;;2.97;2.67;;;;;;;;;;5068635;28;20387;-60
2023/02/02 09:46:38;;;;;;;6.47;4.07;;;;;;;;;;5070173;28;20253;-61
2023/02/02 09:49:09;;;;;;;2.53;2.10;;;;;;;;;;5073880;28;20289;-59
2023/02/02 09:51:39;;;;;;;9.57;4.43;;;;;;;;;;5073828;28;20609;-59
2023/02/02 09:54:13;;;;;;;7.03;3.87;;;;;;;;;;5061620;28;20339;-60
2023/02/02 09:56:43;;;;;;;3.27;2.83;;;;;;;;;;5069736;28;20399;-60
2023/02/02 09:59:16;;;;;;;3.97;2.50;;;;;;;;;;5070243;28;20263;-60
2023/02/02 10:01:43;;;;;;;4.63;2.63;;;;;;;;;;5053909;28;20285;-59
2023/02/02 10:04:17;;;;;;;2.63;2.30;;;;;;;;;;5048164;28;20262;-60
2023/02/02 10:06:48;;;;;;;5.33;3.07;;;;;;;;;;5048316;28;20693;-60
2023/02/02 10:09:33;;;;;;;2.50;2.00;;;;;;;;;;5050983;28;20312;-60
2023/02/02 10:12:06;;;;;;;5.45;4.00;;;;;;;;;;5053767;28;20337;-59
2023/02/02 10:14:36;;;;;;;2.93;2.00;;;;;;;;;;5058808;28;20079;-60
2023/02/02 10:17:17;;;;;;;3.93;2.63;;;;;;;;;;5073214;28;20261;-60
2023/02/02 10:19:44;;;;;;;3.77;3.03;;;;;;;;;;5073140;28;20246;-60
2023/02/02 10:22:14;;;;;;;2.83;2.23;;;;;;;;;;5068465;28;20253;-60
2023/02/02 10:24:41;;;;;;;4.03;2.63;;;;;;;;;;5067733;28;20273;-59
2023/02/02 10:27:31;;;;;;;2.77;2.37;;;;;;;;;;5067487;28;20530;-60
2023/02/02 10:29:59;;;;;;;3.00;2.43;;;;;;;;;;5054389;28;20426;-60
2023/02/02 10:32:27;;;;;;;3.30;2.30;;;;;;;;;;5072494;28;20356;-59
2023/02/02 10:34:54;;;;;;;3.67;2.03;;;;;;;;;;5072894;28;20324;-59
2023/02/02 10:37:42;;;;;;;3.93;3.00;;;;;;;;;;5072810;28;20265;-59
2023/02/02 10:40:17;;;;;;;3.93;2.87;;;;;;;;;;5072278;28;20355;-60
2023/02/02 10:43:44;;;;;;;2.33;1.92;;;;;;;;;;5071793;28;20751;-60
2023/02/02 10:45:33;;;;;;;5.80;3.33;;;;;;;;;;5065923;28;20043;-60
2023/02/02 10:48:00;;;;;;;3.30;2.40;;;;;;;;;;5053261;28;20297;-62
2023/02/02 10:50:27;;;;;;;3.13;2.80;;;;;;;;;;5048969;28;20309;-60
2023/02/02 10:52:56;;;;;;;4.53;3.30;;;;;;;;;;5048498;28;20270;-59
2023/02/02 10:55:26;;;;;;;4.23;3.07;;;;;;;;;;5052759;28;20763;-60
2023/02/02 10:58:04;;;;;;;3.50;2.63;;;;;;;;;;5052562;28;20262;-59
2023/02/02 11:00:31;;;;;;;4.17;2.27;;;;;;;;;;5052263;28;20268;-59
2023/02/02 11:03:03;;;;;;;5.33;3.47;;;;;;;;;;5052572;28;20277;-59
2023/02/02 11:08:15;;;;;;;;;;;;;;;;;;5047738;28;20308;-59
2023/02/02 11:10:42;;;;;;;3.63;2.97;;;;;;;;;;5049006;28;19973;-59
2023/02/02 11:13:12;;;;;;;5.90;2.63;;;;;;;;;;5060671;28;20280;-59
2023/02/02 11:15:39;;;;;;;2.63;2.20;;;;;;;;;;5049191;28;20274;-59
2023/02/02 11:18:27;;;;;;;2.77;2.33;;;;;;;;;;5052447;28;20250;-59
2023/02/02 11:20:53;;;;;;;4.53;3.20;;;;;;;;;;5052240;28;20250;-59
2023/02/02 11:23:21;;;;;;;3.50;2.73;;;;;;;;;;5051656;28;20605;-60
2023/02/02 11:25:56;;;;;;;2.47;2.27;;;;;;;;;;5052324;28;20255;-59
2023/02/02 11:28:29;;;;;;;2.73;2.37;;;;;;;;;;5048261;28;20761;-59
2023/02/02 11:30:55;;;;;;;4.20;2.03;;;;;;;;;;5046650;28;20258;-59
2023/02/02 11:33:36;;;;;;;3.33;2.30;;;;;;;;;;5046681;28;20265;-59
2023/02/02 11:36:04;;;;;;;11.97;4.03;;;;;;;;;;5046703;28;20273;-59
2023/02/02 11:38:31;;;;;;;3.97;2.80;;;;;;;;;;5050241;28;20273;-59
2023/02/02 11:41:03;;;;;;;15.93;2.90;;;;;;;;;;5054853;28;20270;-59
2023/02/02 11:43:33;;;;;;;3.07;2.40;;;;;;;;;;5072003;28;20415;-59
2023/02/02 11:46:07;;;;;;;6.63;3.63;;;;;;;;;;5076141;28;20284;-59
2023/02/02 11:48:38;;;;;;;3.20;2.47;;;;;;;;;;5075516;28;20269;-59
2023/02/02 11:51:05;;;;;;;7.53;2.43;;;;;;;;;;5071573;28;20265;-59
2023/02/02 11:53:48;;;;;;;4.73;1.80;;;;;;;;;;5070940;28;20336;-59
2023/02/02 11:56:25;;;;;;;3.27;2.63;;;;;;;;;;5070580;28;20269;-59
2023/02/02 11:58:57;;;;;;;7.33;3.33;;;;;;;;;;5070220;28;20269;-59
2023/02/02 12:01:29;;;;;;;6.10;4.30;;;;;;;;;;5075507;28;20261;-59
2023/02/02 12:03:56;;;;;;;6.20;4.33;;;;;;;;;;5075955;28;20284;-59
2023/02/02 12:06:25;;;;;;;6.33;4.17;;;;;;;;;;5075728;28;20250;-59
2023/02/02 12:08:54;;;;;;;8.70;3.47;;;;;;;;;;5075646;28;20281;-60
2023/02/02 12:11:26;;;;;;;6.77;4.33;;;;;;;;;;5075303;28;20257;-60
2023/02/02 12:14:00;;;;;;;6.33;2.83;;;;;;;;;;5064668;28;20322;-59
2023/02/02 12:16:35;;;;;;;5.03;3.63;;;;;;;;;;5050398;28;20659;-60
2023/02/02 12:19:11;;;;;;;8.03;3.67;;;;;;;;;;5050189;28;20036;-60
2023/02/02 12:21:47;;;;;;;5.17;3.73;;;;;;;;;;5050356;28;20323;-60
2023/02/02 12:24:20;;;;;;;2.97;2.40;;;;;;;;;;5055401;28;20254;-60
2023/02/02 12:26:56;;;;;;;5.00;3.77;;;;;;;;;;5055530;28;20254;-59
2023/02/02 12:29:25;;;;;;;4.33;2.90;;;;;;;;;;5055177;28;20334;-59
2023/02/02 12:31:52;;;;;;;4.47;3.33;;;;;;;;;;5055391;28;20254;-59
2023/02/02 12:34:36;;;;;;;5.90;2.87;;;;;;;;;;5053359;28;20277;-60
2023/02/02 12:37:21;;;;;;;5.77;3.10;;;;;;;;;;5049969;28;20265;-59
2023/02/02 12:39:57;;;;;;;24.30;3.45;;;;;;;;;;5049689;28;20254;-60
2023/02/02 12:42:42;;;;;;;4.00;3.60;;;;;;;;;;5049871;28;20057;-59
2023/02/02 12:45:24;;;;;;;3.83;3.15;;;;;;;;;;5057427;28;20269;-59
2023/02/02 12:48:10;;;;;;;5.57;3.30;;;;;;;;;;5075006;28;20386;-59
2023/02/02 12:50:53;;;;;;;5.57;4.37;;;;;;;;;;5074424;28;20304;-59
2023/02/02 12:53:38;;;;;;;8.27;5.43;;;;;;;;;;5074395;28;20286;-60
2023/02/02 12:56:14;;;;;;;2.67;2.42;;;;;;;;;;5074207;28;20845;-59
2023/02/02 12:58:47;;;;;;;7.00;4.40;;;;;;;;;;5069365;28;20021;-59
2023/02/02 13:01:22;;;;;;;6.47;4.23;;;;;;;;;;5068970;28;20273;-60
2023/02/02 13:04:04;;;;;;;3.10;2.20;;;;;;;;;;5069240;28;20257;-60
2023/02/02 13:06:31;;;;;;;5.30;3.10;;;;;;;;;;5070976;28;20254;-59
2023/02/02 13:09:01;;;;;;;5.03;3.97;;;;;;;;;;5074390;28;20295;-60
2023/02/02 13:11:48;;;;;;;7.40;3.80;;;;;;;;;;5058407;28;20266;-60
2023/02/02 13:14:20;;;;;;;3.00;2.60;;;;;;;;;;5074452;28;20265;-60
2023/02/02 13:16:50;;;;;;;3.63;3.27;;;;;;;;;;5074584;28;20262;-59
2023/02/02 13:19:35;;;;;;;4.27;3.37;;;;;;;;;;5071264;28;20268;-60
2023/02/02 13:22:02;;;;;;;4.22;3.03;;;;;;;;;;5069099;28;20699;-60
2023/02/02 13:24:31;;;;;;;4.80;3.27;;;;;;;;;;5060155;28;20029;-60
2023/02/02 13:27:01;;;;;;;13.03;4.13;;;;;;;;;;5049038;28;20265;-60
2023/02/02 13:29:47;;;;;;;6.63;3.57;;;;;;;;;;5051962;28;20455;-59
2023/02/02 13:32:28;;;;;;;23.42;4.50;;;;;;;;;;5073765;28;20273;-59
2023/02/02 13:35:01;;;;;;;3.77;3.17;;;;;;;;;;5074241;28;20031;-59
2023/02/02 13:37:28;;;;;;;14.43;4.67;;;;;;;;;;5074261;28;20257;-59
2023/02/02 13:39:54;;;;;;;5.43;3.43;;;;;;;;;;5073056;28;20272;-60
2023/02/02 13:42:26;;;;;;;6.80;3.47;;;;;;;;;;5068803;28;20293;-60
2023/02/02 13:45:00;;;;;;;10.50;3.60;;;;;;;;;;5067909;28;20266;-59
2023/02/02 13:47:34;;;;;;;21.17;4.10;;;;;;;;;;5068438;28;20284;-59
2023/02/02 13:50:05;;;;;;;5.20;2.97;;;;;;;;;;5068233;28;20678;-59
2023/02/02 13:52:40;;;;;;;11.93;3.70;;;;;;;;;;5073783;28;20086;-59
2023/02/02 13:55:07;;;;;;;18.43;5.27;;;;;;;;;;5066668;28;20614;-60
2023/02/02 13:57:52;;;;;;;12.77;6.20;;;;;;;;;;5053681;28;20261;-60
2023/02/02 14:00:22;;;;;;;19.65;6.10;;;;;;;;;;5053291;28;20254;-60
2023/02/02 14:02:54;;;;;;;7.07;3.73;;;;;;;;;;5049915;28;20468;-60
2023/02/02 14:05:25;;;;;;;5.67;3.27;;;;;;;;;;5047775;28;20311;-60
2023/02/02 14:07:57;;;;;;;9.90;4.77;;;;;;;;;;5048070;28;20270;-60
2023/02/02 14:10:30;;;;;;;7.10;2.70;;;;;;;;;;5047764;28;20292;-60
2023/02/02 14:13:04;;;;;;;6.00;3.40;;;;;;;;;;5063767;28;20265;-60
2023/02/02 14:15:39;;;;;;;2.35;1.85;;;;;;;;;;5073330;28;20315;-60
2023/02/02 14:18:06;;;;;;;8.67;3.17;;;;;;;;;;5073331;28;20422;-61
2023/02/02 14:20:41;;;;;;;17.43;3.37;;;;;;;;;;5073297;28;20316;-60
2023/02/02 14:23:26;;;;;;;3.83;2.03;;;;;;;;;;5072761;28;20020;-60
2023/02/02 14:26:07;;;;;;;2.42;1.77;;;;;;;;;;5069680;28;20040;-60
2023/02/02 14:28:44;;;;;;;6.40;3.00;;;;;;;;;;5067449;28;20021;-61
2023/02/02 14:31:36;;;;;;;4.53;3.00;;;;;;;;;;5054350;28;20060;-61
2023/02/02 14:34:29;;;;;;;5.57;2.50;;;;;;;;;;5024190;28;20102;-61
2023/02/02 14:37:11;;;;;;;3.23;2.40;;;;;;;;;;5049857;28;20044;-61
2023/02/02 14:39:46;;;;;;;6.90;3.23;;;;;;;;;;5052920;28;20025;-61
2023/02/02 14:45:15;;;;;;;6.77;4.93;;;;;;;;;;5066553;28;20039;-62
2023/02/02 14:47:42;;;;;;;13.17;5.10;;;;;;;;;;5070105;28;20383;-61
2023/02/02 14:50:16;;;;;;;10.83;5.87;;;;;;;;;;5067134;28;20457;-61
2023/02/02 14:52:43;;;;;;;30.45;6.75;;;;;;;;;;5067222;28;20489;-61
2023/02/02 14:55:17;;;;;;;8.63;4.83;;;;;;;;;;5067340;28;20029;-61
2023/02/02 14:57:44;;;;;;;6.60;4.27;;;;;;;;;;5066719;28;20029;-61
2023/02/02 15:00:21;;;;;;;9.10;5.43;;;;;;;;;;5065066;28;20424;-61
2023/02/02 15:02:52;;;;;;;25.33;7.53;;;;;;;;;;5053657;28;20045;-61
2023/02/02 15:05:28;;;;;;;10.07;6.10;;;;;;;;;;5052516;28;20025;-62
2023/02/02 15:08:05;;;;;;;10.10;6.20;;;;;;;;;;5052471;28;20021;-61
2023/02/02 15:10:52;;;;;;;7.60;5.43;;;;;;;;;;5048429;28;20040;-61
2023/02/02 15:13:20;;;;;;;9.97;5.40;;;;;;;;;;5046791;28;20060;-61
2023/02/02 15:15:49;;;;;;;7.47;4.67;;;;;;;;;;5064584;28;20046;-61